sensor_id;sensor_type;location;lat;lon;timestamp;P1;durP1;ratioP1;P2;durP2;ratioP2
26946;SDS011;14501;52.282;10.560;2022-08-19T00:00:23;13.73;;;9.57;;
26946;SDS011;14501;52.282;10.560;2022-08-19T00:02:49;20.02;;;10.93;;
26946;SDS011;14501;52.282;10.560;2022-08-19T00:05:16;13.55;;;10.18;;
26946;SDS011;14501;52.282;10.560;2022-08-19T00:07:43;15.10;;;9.98;;
26946;SDS011;14501;52.282;10.560;2022-08-19T00:10:10;15.50;;;10.38;;
26946;SDS011;14501;52.282;10.560;2022-08-19T00:12:38;17.55;;;10.57;;
26946;SDS011;14501;52.282;10.560;2022-08-19T00:15:04;14.98;;;10.43;;
26946;SDS011;14501;52.282;10.560;2022-08-19T00:17:31;17.67;;;10.15;;
26946;SDS011;14501;52.282;10.560;2022-08-19T00:19:57;15.63;;;9.88;;
26946;SDS011;14501;52.282;10.560;2022-08-19T00:22:22;15.50;;;11.13;;
26946;SDS011;14501;52.282;10.560;2022-08-19T00:24:48;13.50;;;10.50;;
26946;SDS011;14501;52.282;10.560;2022-08-19T00:27:14;16.02;;;11.07;;
26946;SDS011;14501;52.282;10.560;2022-08-19T00:29:40;15.75;;;10.65;;
26946;SDS011;14501;52.282;10.560;2022-08-19T00:32:06;15.73;;;10.23;;
26946;SDS011;14501;52.282;10.560;2022-08-19T00:34:31;17.55;;;10.05;;
26946;SDS011;14501;52.282;10.560;2022-08-19T00:36:57;12.60;;;10.07;;
26946;SDS011;14501;52.282;10.560;2022-08-19T00:39:23;12.85;;;10.02;;
26946;SDS011;14501;52.282;10.560;2022-08-19T00:41:49;12.60;;;10.35;;
26946;SDS011;14501;52.282;10.560;2022-08-19T00:44:24;16.27;;;10.60;;
26946;SDS011;14501;52.282;10.560;2022-08-19T00:46:52;16.92;;;10.13;;
26946;SDS011;14501;52.282;10.560;2022-08-19T00:49:24;18.98;;;10.32;;
26946;SDS011;14501;52.282;10.560;2022-08-19T00:51:54;11.27;;;10.18;;
26946;SDS011;14501;52.282;10.560;2022-08-19T00:54:25;14.48;;;9.88;;
26946;SDS011;14501;52.282;10.560;2022-08-19T00:56:51;12.70;;;9.48;;
26946;SDS011;14501;52.282;10.560;2022-08-19T00:59:17;13.82;;;10.25;;
26946;SDS011;14501;52.282;10.560;2022-08-19T01:01:44;12.10;;;9.70;;
26946;SDS011;14501;52.282;10.560;2022-08-19T01:04:10;15.30;;;9.77;;
26946;SDS011;14501;52.282;10.560;2022-08-19T01:06:37;15.02;;;10.27;;
26946;SDS011;14501;52.282;10.560;2022-08-19T01:09:04;13.20;;;9.30;;
26946;SDS011;14501;52.282;10.560;2022-08-19T01:11:31;11.25;;;9.48;;
26946;SDS011;14501;52.282;10.560;2022-08-19T01:14:00;14.43;;;9.55;;
26946;SDS011;14501;52.282;10.560;2022-08-19T01:16:26;13.18;;;9.88;;
26946;SDS011;14501;52.282;10.560;2022-08-19T01:18:54;15.48;;;9.60;;
26946;SDS011;14501;52.282;10.560;2022-08-19T01:23:53;9.63;;;8.07;;
26946;SDS011;14501;52.282;10.560;2022-08-19T01:26:20;14.13;;;9.50;;
26946;SDS011;14501;52.282;10.560;2022-08-19T01:28:48;11.25;;;8.75;;
26946;SDS011;14501;52.282;10.560;2022-08-19T01:31:17;13.65;;;9.85;;
26946;SDS011;14501;52.282;10.560;2022-08-19T01:33:47;15.55;;;9.65;;
26946;SDS011;14501;52.282;10.560;2022-08-19T01:36:15;16.67;;;9.45;;
26946;SDS011;14501;52.282;10.560;2022-08-19T01:39:04;12.68;;;9.63;;
26946;SDS011;14501;52.282;10.560;2022-08-19T01:41:32;13.70;;;9.32;;
26946;SDS011;14501;52.282;10.560;2022-08-19T01:43:59;12.45;;;9.98;;
26946;SDS011;14501;52.282;10.560;2022-08-19T01:46:28;13.93;;;9.13;;
26946;SDS011;14501;52.282;10.560;2022-08-19T01:48:55;13.35;;;9.38;;
26946;SDS011;14501;52.282;10.560;2022-08-19T01:51:20;11.43;;;9.07;;
26946;SDS011;14501;52.282;10.560;2022-08-19T01:53:47;9.55;;;8.52;;
26946;SDS011;14501;52.282;10.560;2022-08-19T01:56:14;14.63;;;9.40;;
26946;SDS011;14501;52.282;10.560;2022-08-19T01:58:43;14.95;;;9.05;;
26946;SDS011;14501;52.282;10.560;2022-08-19T02:01:14;14.82;;;9.07;;
26946;SDS011;14501;52.282;10.560;2022-08-19T02:03:40;11.40;;;8.63;;
26946;SDS011;14501;52.282;10.560;2022-08-19T02:06:05;16.00;;;9.30;;
26946;SDS011;14501;52.282;10.560;2022-08-19T02:08:33;12.13;;;8.93;;
26946;SDS011;14501;52.282;10.560;2022-08-19T02:11:01;11.45;;;9.27;;
26946;SDS011;14501;52.282;10.560;2022-08-19T02:13:26;10.38;;;8.45;;
26946;SDS011;14501;52.282;10.560;2022-08-19T02:15:53;15.13;;;8.88;;
26946;SDS011;14501;52.282;10.560;2022-08-19T02:18:18;14.70;;;9.07;;
26946;SDS011;14501;52.282;10.560;2022-08-19T02:20:44;10.90;;;8.63;;
26946;SDS011;14501;52.282;10.560;2022-08-19T02:23:13;11.30;;;9.43;;
26946;SDS011;14501;52.282;10.560;2022-08-19T02:25:40;12.20;;;8.65;;
26946;SDS011;14501;52.282;10.560;2022-08-19T02:28:06;16.20;;;10.15;;
26946;SDS011;14501;52.282;10.560;2022-08-19T02:30:32;15.57;;;9.55;;
26946;SDS011;14501;52.282;10.560;2022-08-19T02:32:58;16.50;;;9.40;;
26946;SDS011;14501;52.282;10.560;2022-08-19T02:35:24;13.57;;;9.18;;
26946;SDS011;14501;52.282;10.560;2022-08-19T02:37:50;14.10;;;8.95;;
26946;SDS011;14501;52.282;10.560;2022-08-19T02:40:34;13.63;;;9.20;;
26946;SDS011;14501;52.282;10.560;2022-08-19T02:43:01;15.43;;;9.52;;
26946;SDS011;14501;52.282;10.560;2022-08-19T02:45:33;13.32;;;10.10;;
26946;SDS011;14501;52.282;10.560;2022-08-19T02:48:03;13.88;;;9.30;;
26946;SDS011;14501;52.282;10.560;2022-08-19T02:50:30;14.18;;;9.35;;
26946;SDS011;14501;52.282;10.560;2022-08-19T02:52:56;16.75;;;9.48;;
26946;SDS011;14501;52.282;10.560;2022-08-19T02:55:22;11.57;;;8.80;;
26946;SDS011;14501;52.282;10.560;2022-08-19T02:57:48;15.52;;;10.18;;
26946;SDS011;14501;52.282;10.560;2022-08-19T03:00:14;15.25;;;10.02;;
26946;SDS011;14501;52.282;10.560;2022-08-19T03:02:41;15.75;;;10.00;;
26946;SDS011;14501;52.282;10.560;2022-08-19T03:05:07;13.93;;;9.23;;
26946;SDS011;14501;52.282;10.560;2022-08-19T03:07:34;14.18;;;10.10;;
26946;SDS011;14501;52.282;10.560;2022-08-19T03:10:00;14.98;;;9.52;;
26946;SDS011;14501;52.282;10.560;2022-08-19T03:12:26;13.95;;;9.00;;
26946;SDS011;14501;52.282;10.560;2022-08-19T03:14:52;15.10;;;9.35;;
26946;SDS011;14501;52.282;10.560;2022-08-19T03:17:17;20.08;;;10.13;;
26946;SDS011;14501;52.282;10.560;2022-08-19T03:19:43;10.93;;;9.15;;
26946;SDS011;14501;52.282;10.560;2022-08-19T03:22:09;13.85;;;9.40;;
26946;SDS011;14501;52.282;10.560;2022-08-19T03:24:35;14.02;;;9.25;;
26946;SDS011;14501;52.282;10.560;2022-08-19T03:27:00;15.13;;;9.88;;
26946;SDS011;14501;52.282;10.560;2022-08-19T03:29:27;13.45;;;9.85;;
26946;SDS011;14501;52.282;10.560;2022-08-19T03:31:53;19.77;;;10.70;;
26946;SDS011;14501;52.282;10.560;2022-08-19T03:34:26;13.27;;;10.02;;
26946;SDS011;14501;52.282;10.560;2022-08-19T03:36:55;15.60;;;10.52;;
26946;SDS011;14501;52.282;10.560;2022-08-19T03:39:22;12.52;;;9.70;;
26946;SDS011;14501;52.282;10.560;2022-08-19T03:41:49;15.57;;;10.15;;
26946;SDS011;14501;52.282;10.560;2022-08-19T03:44:20;14.70;;;10.35;;
26946;SDS011;14501;52.282;10.560;2022-08-19T03:46:48;16.08;;;9.93;;
26946;SDS011;14501;52.282;10.560;2022-08-19T03:49:15;15.02;;;10.50;;
26946;SDS011;14501;52.282;10.560;2022-08-19T03:51:42;14.85;;;10.93;;
26946;SDS011;14501;52.282;10.560;2022-08-19T03:54:09;14.02;;;9.85;;
26946;SDS011;14501;52.282;10.560;2022-08-19T03:56:38;15.85;;;10.18;;
26946;SDS011;14501;52.282;10.560;2022-08-19T03:59:06;13.85;;;9.70;;
26946;SDS011;14501;52.282;10.560;2022-08-19T04:01:34;15.82;;;9.82;;
26946;SDS011;14501;52.282;10.560;2022-08-19T04:04:00;16.55;;;9.77;;
26946;SDS011;14501;52.282;10.560;2022-08-19T04:06:28;12.23;;;9.50;;
26946;SDS011;14501;52.282;10.560;2022-08-19T04:08:56;17.88;;;11.18;;
26946;SDS011;14501;52.282;10.560;2022-08-19T04:11:37;15.52;;;9.93;;
26946;SDS011;14501;52.282;10.560;2022-08-19T04:14:07;19.10;;;10.50;;
26946;SDS011;14501;52.282;10.560;2022-08-19T04:16:34;15.98;;;10.20;;
26946;SDS011;14501;52.282;10.560;2022-08-19T04:19:00;15.32;;;9.55;;
26946;SDS011;14501;52.282;10.560;2022-08-19T04:21:27;15.85;;;10.45;;
26946;SDS011;14501;52.282;10.560;2022-08-19T04:23:54;15.63;;;10.20;;
26946;SDS011;14501;52.282;10.560;2022-08-19T04:26:22;17.60;;;10.93;;
26946;SDS011;14501;52.282;10.560;2022-08-19T04:28:49;17.73;;;10.68;;
26946;SDS011;14501;52.282;10.560;2022-08-19T04:31:23;14.45;;;10.73;;
26946;SDS011;14501;52.282;10.560;2022-08-19T04:33:55;19.20;;;10.82;;
26946;SDS011;14501;52.282;10.560;2022-08-19T04:36:29;17.52;;;10.48;;
26946;SDS011;14501;52.282;10.560;2022-08-19T04:38:57;18.10;;;10.88;;
26946;SDS011;14501;52.282;10.560;2022-08-19T04:41:25;15.82;;;11.70;;
26946;SDS011;14501;52.282;10.560;2022-08-19T04:44:09;16.55;;;10.80;;
26946;SDS011;14501;52.282;10.560;2022-08-19T04:46:36;14.20;;;10.00;;
26946;SDS011;14501;52.282;10.560;2022-08-19T04:49:03;17.77;;;10.45;;
26946;SDS011;14501;52.282;10.560;2022-08-19T04:51:30;14.98;;;10.23;;
26946;SDS011;14501;52.282;10.560;2022-08-19T04:53:57;17.27;;;9.68;;
26946;SDS011;14501;52.282;10.560;2022-08-19T04:56:24;12.30;;;9.63;;
26946;SDS011;14501;52.282;10.560;2022-08-19T04:58:52;13.45;;;10.07;;
26946;SDS011;14501;52.282;10.560;2022-08-19T05:01:20;13.90;;;9.80;;
26946;SDS011;14501;52.282;10.560;2022-08-19T05:03:48;19.23;;;9.48;;
26946;SDS011;14501;52.282;10.560;2022-08-19T05:06:14;13.23;;;9.90;;
26946;SDS011;14501;52.282;10.560;2022-08-19T05:08:41;19.42;;;10.57;;
26946;SDS011;14501;52.282;10.560;2022-08-19T05:11:09;12.73;;;10.07;;
26946;SDS011;14501;52.282;10.560;2022-08-19T05:13:37;17.08;;;10.07;;
26946;SDS011;14501;52.282;10.560;2022-08-19T05:16:02;18.15;;;9.90;;
26946;SDS011;14501;52.282;10.560;2022-08-19T05:18:28;14.23;;;9.68;;
26946;SDS011;14501;52.282;10.560;2022-08-19T05:21:20;12.70;;;10.15;;
26946;SDS011;14501;52.282;10.560;2022-08-19T05:24:05;13.82;;;10.02;;
26946;SDS011;14501;52.282;10.560;2022-08-19T05:26:38;15.43;;;11.00;;
26946;SDS011;14501;52.282;10.560;2022-08-19T05:29:05;14.65;;;10.50;;
26946;SDS011;14501;52.282;10.560;2022-08-19T05:31:32;16.73;;;10.40;;
26946;SDS011;14501;52.282;10.560;2022-08-19T05:33:59;15.38;;;10.15;;
26946;SDS011;14501;52.282;10.560;2022-08-19T05:36:25;16.90;;;10.25;;
26946;SDS011;14501;52.282;10.560;2022-08-19T05:38:51;13.13;;;10.18;;
26946;SDS011;14501;52.282;10.560;2022-08-19T05:41:18;13.60;;;9.65;;
26946;SDS011;14501;52.282;10.560;2022-08-19T05:43:45;14.60;;;10.07;;
26946;SDS011;14501;52.282;10.560;2022-08-19T05:46:16;14.00;;;9.98;;
26946;SDS011;14501;52.282;10.560;2022-08-19T05:48:43;18.80;;;10.02;;
26946;SDS011;14501;52.282;10.560;2022-08-19T05:51:09;11.57;;;8.98;;
26946;SDS011;14501;52.282;10.560;2022-08-19T05:53:35;15.70;;;10.20;;
26946;SDS011;14501;52.282;10.560;2022-08-19T05:56:08;14.43;;;9.13;;
26946;SDS011;14501;52.282;10.560;2022-08-19T05:58:35;14.25;;;9.63;;
26946;SDS011;14501;52.282;10.560;2022-08-19T06:01:01;14.23;;;9.93;;
26946;SDS011;14501;52.282;10.560;2022-08-19T06:03:31;15.55;;;9.63;;
26946;SDS011;14501;52.282;10.560;2022-08-19T06:05:58;11.75;;;8.90;;
26946;SDS011;14501;52.282;10.560;2022-08-19T06:08:27;13.57;;;9.15;;
26946;SDS011;14501;52.282;10.560;2022-08-19T06:10:54;18.08;;;9.60;;
26946;SDS011;14501;52.282;10.560;2022-08-19T06:13:20;14.18;;;9.55;;
26946;SDS011;14501;52.282;10.560;2022-08-19T06:15:47;9.73;;;8.70;;
26946;SDS011;14501;52.282;10.560;2022-08-19T06:18:13;9.30;;;7.88;;
26946;SDS011;14501;52.282;10.560;2022-08-19T06:20:40;14.15;;;9.38;;
26946;SDS011;14501;52.282;10.560;2022-08-19T06:23:06;12.23;;;8.50;;
26946;SDS011;14501;52.282;10.560;2022-08-19T06:25:32;11.52;;;7.90;;
26946;SDS011;14501;52.282;10.560;2022-08-19T06:27:58;11.48;;;8.63;;
26946;SDS011;14501;52.282;10.560;2022-08-19T06:30:23;13.32;;;8.45;;
26946;SDS011;14501;52.282;10.560;2022-08-19T06:32:49;13.15;;;8.95;;
26946;SDS011;14501;52.282;10.560;2022-08-19T06:35:14;11.40;;;8.13;;
26946;SDS011;14501;52.282;10.560;2022-08-19T06:37:40;12.68;;;7.93;;
26946;SDS011;14501;52.282;10.560;2022-08-19T06:40:08;13.43;;;8.00;;
26946;SDS011;14501;52.282;10.560;2022-08-19T06:42:36;10.90;;;7.43;;
26946;SDS011;14501;52.282;10.560;2022-08-19T06:45:03;12.88;;;7.65;;
26946;SDS011;14501;52.282;10.560;2022-08-19T06:47:30;12.43;;;6.88;;
26946;SDS011;14501;52.282;10.560;2022-08-19T06:49:57;8.88;;;7.03;;
26946;SDS011;14501;52.282;10.560;2022-08-19T06:52:29;9.75;;;6.90;;
26946;SDS011;14501;52.282;10.560;2022-08-19T06:54:55;8.32;;;6.00;;
26946;SDS011;14501;52.282;10.560;2022-08-19T06:57:23;8.93;;;6.55;;
26946;SDS011;14501;52.282;10.560;2022-08-19T06:59:49;9.32;;;7.00;;
26946;SDS011;14501;52.282;10.560;2022-08-19T07:02:14;9.02;;;6.75;;
26946;SDS011;14501;52.282;10.560;2022-08-19T07:04:40;12.00;;;6.65;;
26946;SDS011;14501;52.282;10.560;2022-08-19T07:07:07;14.40;;;7.20;;
26946;SDS011;14501;52.282;10.560;2022-08-19T07:09:37;9.20;;;6.18;;
26946;SDS011;14501;52.282;10.560;2022-08-19T07:12:07;9.70;;;6.93;;
26946;SDS011;14501;52.282;10.560;2022-08-19T07:14:35;8.05;;;5.97;;
26946;SDS011;14501;52.282;10.560;2022-08-19T07:17:02;9.02;;;5.97;;
26946;SDS011;14501;52.282;10.560;2022-08-19T07:19:30;8.65;;;6.32;;
26946;SDS011;14501;52.282;10.560;2022-08-19T07:21:56;7.80;;;6.05;;
26946;SDS011;14501;52.282;10.560;2022-08-19T07:24:25;9.95;;;6.95;;
26946;SDS011;14501;52.282;10.560;2022-08-19T07:26:52;7.57;;;5.80;;
26946;SDS011;14501;52.282;10.560;2022-08-19T07:29:20;10.57;;;6.63;;
26946;SDS011;14501;52.282;10.560;2022-08-19T07:31:50;8.77;;;6.38;;
26946;SDS011;14501;52.282;10.560;2022-08-19T07:34:16;8.52;;;6.22;;
26946;SDS011;14501;52.282;10.560;2022-08-19T07:36:42;8.73;;;6.40;;
26946;SDS011;14501;52.282;10.560;2022-08-19T07:39:11;9.00;;;6.18;;
26946;SDS011;14501;52.282;10.560;2022-08-19T07:41:39;8.18;;;5.90;;
26946;SDS011;14501;52.282;10.560;2022-08-19T07:44:05;8.02;;;5.97;;
26946;SDS011;14501;52.282;10.560;2022-08-19T07:46:32;9.95;;;6.03;;
26946;SDS011;14501;52.282;10.560;2022-08-19T07:49:00;8.40;;;6.00;;
26946;SDS011;14501;52.282;10.560;2022-08-19T07:51:27;7.93;;;5.60;;
26946;SDS011;14501;52.282;10.560;2022-08-19T07:53:53;10.05;;;5.82;;
26946;SDS011;14501;52.282;10.560;2022-08-19T07:56:19;8.73;;;6.07;;
26946;SDS011;14501;52.282;10.560;2022-08-19T07:58:47;8.30;;;5.78;;
26946;SDS011;14501;52.282;10.560;2022-08-19T08:01:15;9.07;;;5.75;;
26946;SDS011;14501;52.282;10.560;2022-08-19T08:03:51;8.18;;;6.32;;
26946;SDS011;14501;52.282;10.560;2022-08-19T08:06:36;10.07;;;5.90;;
26946;SDS011;14501;52.282;10.560;2022-08-19T08:09:24;8.48;;;5.55;;
26946;SDS011;14501;52.282;10.560;2022-08-19T08:14:20;7.95;;;6.20;;
26946;SDS011;14501;52.282;10.560;2022-08-19T08:16:49;7.47;;;5.15;;
26946;SDS011;14501;52.282;10.560;2022-08-19T08:19:17;9.73;;;5.70;;
26946;SDS011;14501;52.282;10.560;2022-08-19T08:21:45;6.25;;;5.10;;
26946;SDS011;14501;52.282;10.560;2022-08-19T08:24:12;11.10;;;5.57;;
26946;SDS011;14501;52.282;10.560;2022-08-19T08:26:38;6.72;;;5.18;;
26946;SDS011;14501;52.282;10.560;2022-08-19T08:29:04;6.93;;;5.20;;
26946;SDS011;14501;52.282;10.560;2022-08-19T08:31:32;8.00;;;5.78;;
26946;SDS011;14501;52.282;10.560;2022-08-19T08:33:59;8.43;;;5.65;;
26946;SDS011;14501;52.282;10.560;2022-08-19T08:36:25;7.45;;;5.32;;
26946;SDS011;14501;52.282;10.560;2022-08-19T08:38:51;7.70;;;5.13;;
26946;SDS011;14501;52.282;10.560;2022-08-19T08:43:55;6.15;;;4.43;;
26946;SDS011;14501;52.282;10.560;2022-08-19T08:49:45;8.38;;;4.75;;
26946;SDS011;14501;52.282;10.560;2022-08-19T08:52:30;9.27;;;4.93;;
26946;SDS011;14501;52.282;10.560;2022-08-19T08:55:03;6.93;;;4.55;;
26946;SDS011;14501;52.282;10.560;2022-08-19T08:57:36;7.28;;;4.57;;
26946;SDS011;14501;52.282;10.560;2022-08-19T09:00:20;6.00;;;4.75;;
26946;SDS011;14501;52.282;10.560;2022-08-19T09:02:50;7.95;;;4.88;;
26946;SDS011;14501;52.282;10.560;2022-08-19T09:05:15;7.43;;;4.90;;
26946;SDS011;14501;52.282;10.560;2022-08-19T09:10:39;5.35;;;4.70;;
26946;SDS011;14501;52.282;10.560;2022-08-19T09:13:14;7.13;;;4.85;;
26946;SDS011;14501;52.282;10.560;2022-08-19T09:15:53;6.18;;;4.55;;
26946;SDS011;14501;52.282;10.560;2022-08-19T09:18:23;11.07;;;4.72;;
26946;SDS011;14501;52.282;10.560;2022-08-19T09:20:49;5.97;;;3.90;;
26946;SDS011;14501;52.282;10.560;2022-08-19T09:23:14;8.07;;;4.78;;
26946;SDS011;14501;52.282;10.560;2022-08-19T09:25:40;7.18;;;4.28;;
26946;SDS011;14501;52.282;10.560;2022-08-19T09:28:06;7.82;;;4.60;;
26946;SDS011;14501;52.282;10.560;2022-08-19T09:30:41;4.97;;;3.53;;
26946;SDS011;14501;52.282;10.560;2022-08-19T09:33:07;7.13;;;4.00;;
26946;SDS011;14501;52.282;10.560;2022-08-19T09:35:33;7.75;;;4.20;;
26946;SDS011;14501;52.282;10.560;2022-08-19T09:38:00;11.00;;;5.20;;
26946;SDS011;14501;52.282;10.560;2022-08-19T09:40:26;6.70;;;4.35;;
26946;SDS011;14501;52.282;10.560;2022-08-19T09:42:53;7.07;;;4.45;;
26946;SDS011;14501;52.282;10.560;2022-08-19T09:45:20;7.13;;;4.25;;
26946;SDS011;14501;52.282;10.560;2022-08-19T09:47:47;6.50;;;4.40;;
26946;SDS011;14501;52.282;10.560;2022-08-19T09:50:13;8.18;;;4.93;;
26946;SDS011;14501;52.282;10.560;2022-08-19T09:52:39;5.35;;;4.50;;
26946;SDS011;14501;52.282;10.560;2022-08-19T09:55:07;6.97;;;4.47;;
26946;SDS011;14501;52.282;10.560;2022-08-19T09:57:34;5.13;;;4.63;;
26946;SDS011;14501;52.282;10.560;2022-08-19T10:00:00;6.47;;;4.97;;
26946;SDS011;14501;52.282;10.560;2022-08-19T10:02:28;5.85;;;4.95;;
26946;SDS011;14501;52.282;10.560;2022-08-19T10:04:53;7.97;;;4.75;;
26946;SDS011;14501;52.282;10.560;2022-08-19T10:07:38;7.35;;;5.05;;
26946;SDS011;14501;52.282;10.560;2022-08-19T10:10:04;7.97;;;5.07;;
26946;SDS011;14501;52.282;10.560;2022-08-19T10:12:31;7.90;;;5.00;;
26946;SDS011;14501;52.282;10.560;2022-08-19T10:14:58;12.85;;;5.75;;
26946;SDS011;14501;52.282;10.560;2022-08-19T10:17:25;6.82;;;5.20;;
26946;SDS011;14501;52.282;10.560;2022-08-19T10:19:51;8.55;;;5.63;;
26946;SDS011;14501;52.282;10.560;2022-08-19T10:22:17;8.50;;;5.60;;
26946;SDS011;14501;52.282;10.560;2022-08-19T10:24:45;8.93;;;5.75;;
26946;SDS011;14501;52.282;10.560;2022-08-19T10:27:11;8.93;;;5.93;;
26946;SDS011;14501;52.282;10.560;2022-08-19T10:29:38;7.15;;;5.90;;
26946;SDS011;14501;52.282;10.560;2022-08-19T10:32:04;8.02;;;5.53;;
26946;SDS011;14501;52.282;10.560;2022-08-19T10:34:33;6.47;;;5.70;;
26946;SDS011;14501;52.282;10.560;2022-08-19T10:37:01;11.75;;;6.28;;
26946;SDS011;14501;52.282;10.560;2022-08-19T10:39:31;9.70;;;6.22;;
26946;SDS011;14501;52.282;10.560;2022-08-19T10:41:59;8.65;;;5.47;;
26946;SDS011;14501;52.282;10.560;2022-08-19T10:44:28;10.52;;;5.57;;
26946;SDS011;14501;52.282;10.560;2022-08-19T10:46:55;7.93;;;5.65;;
26946;SDS011;14501;52.282;10.560;2022-08-19T10:49:20;8.07;;;5.57;;
26946;SDS011;14501;52.282;10.560;2022-08-19T10:51:49;8.25;;;5.15;;
26946;SDS011;14501;52.282;10.560;2022-08-19T10:54:33;6.57;;;5.70;;
26946;SDS011;14501;52.282;10.560;2022-08-19T10:57:17;7.05;;;5.72;;
26946;SDS011;14501;52.282;10.560;2022-08-19T10:59:43;7.65;;;6.50;;
26946;SDS011;14501;52.282;10.560;2022-08-19T11:02:10;9.65;;;5.95;;
26946;SDS011;14501;52.282;10.560;2022-08-19T11:04:37;8.68;;;5.55;;
26946;SDS011;14501;52.282;10.560;2022-08-19T11:07:04;7.95;;;5.63;;
26946;SDS011;14501;52.282;10.560;2022-08-19T11:09:31;9.75;;;6.25;;
26946;SDS011;14501;52.282;10.560;2022-08-19T11:12:01;8.43;;;7.53;;
26946;SDS011;14501;52.282;10.560;2022-08-19T11:14:28;7.93;;;6.63;;
26946;SDS011;14501;52.282;10.560;2022-08-19T11:16:55;6.70;;;5.97;;
26946;SDS011;14501;52.282;10.560;2022-08-19T11:19:22;10.02;;;7.13;;
26946;SDS011;14501;52.282;10.560;2022-08-19T11:21:49;7.30;;;6.60;;
26946;SDS011;14501;52.282;10.560;2022-08-19T11:24:17;9.93;;;7.15;;
26946;SDS011;14501;52.282;10.560;2022-08-19T11:26:47;9.27;;;6.82;;
26946;SDS011;14501;52.282;10.560;2022-08-19T11:29:14;7.00;;;5.80;;
26946;SDS011;14501;52.282;10.560;2022-08-19T11:31:42;6.15;;;5.32;;
26946;SDS011;14501;52.282;10.560;2022-08-19T11:34:11;7.25;;;5.03;;
26946;SDS011;14501;52.282;10.560;2022-08-19T11:36:40;6.78;;;5.68;;
26946;SDS011;14501;52.282;10.560;2022-08-19T11:39:09;8.60;;;6.30;;
26946;SDS011;14501;52.282;10.560;2022-08-19T11:41:37;7.00;;;5.90;;
26946;SDS011;14501;52.282;10.560;2022-08-19T11:44:04;8.70;;;6.05;;
26946;SDS011;14501;52.282;10.560;2022-08-19T11:46:31;5.95;;;5.35;;
26946;SDS011;14501;52.282;10.560;2022-08-19T11:48:57;5.53;;;4.90;;
26946;SDS011;14501;52.282;10.560;2022-08-19T11:51:25;6.88;;;4.63;;
26946;SDS011;14501;52.282;10.560;2022-08-19T11:53:53;6.18;;;4.70;;
26946;SDS011;14501;52.282;10.560;2022-08-19T11:56:20;6.07;;;3.95;;
26946;SDS011;14501;52.282;10.560;2022-08-19T11:58:46;4.90;;;3.97;;
26946;SDS011;14501;52.282;10.560;2022-08-19T12:01:13;5.45;;;4.70;;
26946;SDS011;14501;52.282;10.560;2022-08-19T12:03:41;4.63;;;4.13;;
26946;SDS011;14501;52.282;10.560;2022-08-19T12:06:09;5.32;;;4.55;;
26946;SDS011;14501;52.282;10.560;2022-08-19T12:08:38;7.00;;;4.32;;
26946;SDS011;14501;52.282;10.560;2022-08-19T12:11:04;5.10;;;3.58;;
26946;SDS011;14501;52.282;10.560;2022-08-19T12:13:33;4.07;;;3.67;;
26946;SDS011;14501;52.282;10.560;2022-08-19T12:15:59;5.70;;;4.72;;
26946;SDS011;14501;52.282;10.560;2022-08-19T12:18:26;4.30;;;3.85;;
26946;SDS011;14501;52.282;10.560;2022-08-19T12:20:53;4.20;;;3.80;;
26946;SDS011;14501;52.282;10.560;2022-08-19T12:23:21;5.60;;;3.78;;
26946;SDS011;14501;52.282;10.560;2022-08-19T12:25:48;4.75;;;4.10;;
26946;SDS011;14501;52.282;10.560;2022-08-19T12:28:18;4.35;;;3.95;;
26946;SDS011;14501;52.282;10.560;2022-08-19T12:30:44;5.70;;;3.95;;
26946;SDS011;14501;52.282;10.560;2022-08-19T12:33:10;4.03;;;3.53;;
26946;SDS011;14501;52.282;10.560;2022-08-19T12:35:39;5.22;;;3.90;;
26946;SDS011;14501;52.282;10.560;2022-08-19T12:38:10;4.72;;;4.00;;
26946;SDS011;14501;52.282;10.560;2022-08-19T12:40:36;4.20;;;3.80;;
26946;SDS011;14501;52.282;10.560;2022-08-19T12:43:02;5.13;;;4.43;;
26946;SDS011;14501;52.282;10.560;2022-08-19T12:45:29;4.95;;;4.30;;
26946;SDS011;14501;52.282;10.560;2022-08-19T12:47:54;4.57;;;4.18;;
26946;SDS011;14501;52.282;10.560;2022-08-19T12:50:20;5.50;;;4.32;;
26946;SDS011;14501;52.282;10.560;2022-08-19T12:52:46;6.07;;;4.25;;
26946;SDS011;14501;52.282;10.560;2022-08-19T12:55:13;5.07;;;3.75;;
26946;SDS011;14501;52.282;10.560;2022-08-19T12:57:39;4.55;;;3.90;;
26946;SDS011;14501;52.282;10.560;2022-08-19T13:00:06;4.53;;;4.07;;
26946;SDS011;14501;52.282;10.560;2022-08-19T13:02:37;5.95;;;3.70;;
26946;SDS011;14501;52.282;10.560;2022-08-19T13:05:03;4.45;;;3.60;;
26946;SDS011;14501;52.282;10.560;2022-08-19T13:07:31;4.68;;;4.05;;
26946;SDS011;14501;52.282;10.560;2022-08-19T13:09:57;4.30;;;3.55;;
26946;SDS011;14501;52.282;10.560;2022-08-19T13:12:23;4.20;;;3.80;;
26946;SDS011;14501;52.282;10.560;2022-08-19T13:14:52;4.45;;;3.22;;
26946;SDS011;14501;52.282;10.560;2022-08-19T13:17:19;4.60;;;3.53;;
26946;SDS011;14501;52.282;10.560;2022-08-19T13:19:45;4.93;;;3.63;;
26946;SDS011;14501;52.282;10.560;2022-08-19T13:22:10;7.05;;;3.58;;
26946;SDS011;14501;52.282;10.560;2022-08-19T13:24:37;4.78;;;3.88;;
26946;SDS011;14501;52.282;10.560;2022-08-19T13:27:03;4.20;;;3.67;;
26946;SDS011;14501;52.282;10.560;2022-08-19T13:29:29;4.20;;;3.53;;
26946;SDS011;14501;52.282;10.560;2022-08-19T13:32:13;3.85;;;3.45;;
26946;SDS011;14501;52.282;10.560;2022-08-19T13:34:57;4.40;;;4.00;;
26946;SDS011;14501;52.282;10.560;2022-08-19T13:37:23;6.03;;;4.10;;
26946;SDS011;14501;52.282;10.560;2022-08-19T13:42:42;4.05;;;3.65;;
26946;SDS011;14501;52.282;10.560;2022-08-19T13:45:08;4.38;;;3.97;;
26946;SDS011;14501;52.282;10.560;2022-08-19T13:47:35;4.68;;;4.03;;
26946;SDS011;14501;52.282;10.560;2022-08-19T13:50:10;4.38;;;3.97;;
26946;SDS011;14501;52.282;10.560;2022-08-19T13:52:38;4.63;;;3.80;;
26946;SDS011;14501;52.282;10.560;2022-08-19T13:55:05;4.03;;;3.60;;
26946;SDS011;14501;52.282;10.560;2022-08-19T13:57:31;4.55;;;3.90;;
26946;SDS011;14501;52.282;10.560;2022-08-19T13:59:57;4.47;;;4.07;;
26946;SDS011;14501;52.282;10.560;2022-08-19T14:02:23;4.63;;;4.10;;
26946;SDS011;14501;52.282;10.560;2022-08-19T14:04:50;4.40;;;4.00;;
26946;SDS011;14501;52.282;10.560;2022-08-19T14:07:15;6.00;;;4.03;;
26946;SDS011;14501;52.282;10.560;2022-08-19T14:09:41;4.55;;;4.15;;
26946;SDS011;14501;52.282;10.560;2022-08-19T14:12:07;9.10;;;4.47;;
26946;SDS011;14501;52.282;10.560;2022-08-19T14:14:36;7.70;;;4.35;;
26946;SDS011;14501;52.282;10.560;2022-08-19T14:17:07;4.53;;;4.13;;
26946;SDS011;14501;52.282;10.560;2022-08-19T14:19:34;4.38;;;3.90;;
26946;SDS011;14501;52.282;10.560;2022-08-19T14:22:00;4.95;;;4.15;;
26946;SDS011;14501;52.282;10.560;2022-08-19T14:24:26;5.93;;;4.28;;
26946;SDS011;14501;52.282;10.560;2022-08-19T14:26:52;5.20;;;4.43;;
26946;SDS011;14501;52.282;10.560;2022-08-19T14:29:17;4.72;;;4.18;;
26946;SDS011;14501;52.282;10.560;2022-08-19T14:31:43;6.00;;;4.13;;
26946;SDS011;14501;52.282;10.560;2022-08-19T14:34:09;5.43;;;4.32;;
26946;SDS011;14501;52.282;10.560;2022-08-19T14:36:35;5.22;;;4.72;;
26946;SDS011;14501;52.282;10.560;2022-08-19T14:39:02;4.63;;;4.22;;
26946;SDS011;14501;52.282;10.560;2022-08-19T14:41:28;5.35;;;4.07;;
26946;SDS011;14501;52.282;10.560;2022-08-19T14:43:55;4.40;;;4.00;;
26946;SDS011;14501;52.282;10.560;2022-08-19T14:46:25;5.68;;;4.00;;